sensor_id;sensor_type;location;lat;lon;timestamp;P1;durP1;ratioP1;P2;durP2;ratioP2
25721;SDS011;13578;53.450;15.496;2022-12-07T00:01:09;43.28;;;13.65;;
25721;SDS011;13578;53.450;15.496;2022-12-07T00:04:12;50.72;;;15.05;;
25721;SDS011;13578;53.450;15.496;2022-12-07T00:07:15;50.10;;;15.77;;
25721;SDS011;13578;53.450;15.496;2022-12-07T00:10:15;59.40;;;17.45;;
25721;SDS011;13578;53.450;15.496;2022-12-07T00:13:16;56.85;;;16.77;;
25721;SDS011;13578;53.450;15.496;2022-12-07T00:16:18;66.80;;;21.50;;
25721;SDS011;13578;53.450;15.496;2022-12-07T00:19:20;72.57;;;20.38;;
25721;SDS011;13578;53.450;15.496;2022-12-07T00:22:20;52.03;;;18.33;;
25721;SDS011;13578;53.450;15.496;2022-12-07T00:25:21;63.55;;;17.20;;
25721;SDS011;13578;53.450;15.496;2022-12-07T00:28:22;42.88;;;15.85;;
25721;SDS011;13578;53.450;15.496;2022-12-07T00:31:24;30.20;;;12.43;;
25721;SDS011;13578;53.450;15.496;2022-12-07T00:34:26;34.63;;;13.48;;
25721;SDS011;13578;53.450;15.496;2022-12-07T00:37:26;30.05;;;11.73;;
25721;SDS011;13578;53.450;15.496;2022-12-07T00:40:27;24.15;;;11.50;;
25721;SDS011;13578;53.450;15.496;2022-12-07T00:43:28;30.15;;;13.93;;
25721;SDS011;13578;53.450;15.496;2022-12-07T00:46:29;29.77;;;11.43;;
25721;SDS011;13578;53.450;15.496;2022-12-07T00:49:30;33.55;;;11.20;;
25721;SDS011;13578;53.450;15.496;2022-12-07T00:52:30;33.80;;;11.68;;
25721;SDS011;13578;53.450;15.496;2022-12-07T00:55:34;30.67;;;12.38;;
25721;SDS011;13578;53.450;15.496;2022-12-07T00:58:35;30.48;;;12.32;;
25721;SDS011;13578;53.450;15.496;2022-12-07T01:01:36;28.27;;;10.77;;
25721;SDS011;13578;53.450;15.496;2022-12-07T01:04:37;33.78;;;11.05;;
25721;SDS011;13578;53.450;15.496;2022-12-07T01:07:37;39.10;;;12.15;;
25721;SDS011;13578;53.450;15.496;2022-12-07T01:10:38;40.97;;;13.60;;
25721;SDS011;13578;53.450;15.496;2022-12-07T01:13:38;34.53;;;12.40;;
25721;SDS011;13578;53.450;15.496;2022-12-07T01:16:39;35.20;;;14.43;;
25721;SDS011;13578;53.450;15.496;2022-12-07T01:19:40;37.22;;;13.20;;
25721;SDS011;13578;53.450;15.496;2022-12-07T01:22:41;36.53;;;13.07;;
25721;SDS011;13578;53.450;15.496;2022-12-07T01:25:42;39.80;;;11.23;;
25721;SDS011;13578;53.450;15.496;2022-12-07T01:28:43;57.45;;;14.18;;
25721;SDS011;13578;53.450;15.496;2022-12-07T01:31:44;29.40;;;11.82;;
25721;SDS011;13578;53.450;15.496;2022-12-07T01:34:47;47.70;;;13.25;;
25721;SDS011;13578;53.450;15.496;2022-12-07T01:37:48;40.60;;;12.23;;
25721;SDS011;13578;53.450;15.496;2022-12-07T01:40:53;33.38;;;12.20;;
25721;SDS011;13578;53.450;15.496;2022-12-07T01:47:17;51.83;;;12.80;;
25721;SDS011;13578;53.450;15.496;2022-12-07T01:50:18;46.63;;;13.65;;
25721;SDS011;13578;53.450;15.496;2022-12-07T01:53:20;48.60;;;13.55;;
25721;SDS011;13578;53.450;15.496;2022-12-07T01:56:24;45.70;;;15.23;;
25721;SDS011;13578;53.450;15.496;2022-12-07T01:59:28;46.70;;;14.27;;
25721;SDS011;13578;53.450;15.496;2022-12-07T02:02:33;60.95;;;17.60;;
25721;SDS011;13578;53.450;15.496;2022-12-07T02:05:37;53.15;;;17.50;;
25721;SDS011;13578;53.450;15.496;2022-12-07T02:08:40;68.75;;;21.63;;
25721;SDS011;13578;53.450;15.496;2022-12-07T02:11:42;92.57;;;23.60;;
25721;SDS011;13578;53.450;15.496;2022-12-07T02:14:43;111.22;;;27.17;;
25721;SDS011;13578;53.450;15.496;2022-12-07T02:21:20;126.40;;;28.27;;
25721;SDS011;13578;53.450;15.496;2022-12-07T02:31:14;140.75;;;29.90;;
25721;SDS011;13578;53.450;15.496;2022-12-07T02:34:21;121.97;;;26.35;;
25721;SDS011;13578;53.450;15.496;2022-12-07T02:37:46;105.60;;;25.27;;
25721;SDS011;13578;53.450;15.496;2022-12-07T02:41:10;85.18;;;21.02;;
25721;SDS011;13578;53.450;15.496;2022-12-07T02:44:17;60.67;;;18.55;;
25721;SDS011;13578;53.450;15.496;2022-12-07T02:47:21;57.15;;;16.40;;
25721;SDS011;13578;53.450;15.496;2022-12-07T02:50:24;44.47;;;15.38;;
25721;SDS011;13578;53.450;15.496;2022-12-07T02:53:43;29.00;;;13.63;;
25721;SDS011;13578;53.450;15.496;2022-12-07T03:03:09;36.10;;;13.93;;
25721;SDS011;13578;53.450;15.496;2022-12-07T03:06:16;37.92;;;13.35;;
25721;SDS011;13578;53.450;15.496;2022-12-07T03:09:32;34.85;;;13.55;;
25721;SDS011;13578;53.450;15.496;2022-12-07T03:12:57;23.20;;;11.23;;
25721;SDS011;13578;53.450;15.496;2022-12-07T03:19:19;22.75;;;11.93;;
25721;SDS011;13578;53.450;15.496;2022-12-07T03:22:22;21.65;;;11.48;;
25721;SDS011;13578;53.450;15.496;2022-12-07T03:25:23;16.40;;;11.20;;
25721;SDS011;13578;53.450;15.496;2022-12-07T03:28:26;18.45;;;11.77;;
25721;SDS011;13578;53.450;15.496;2022-12-07T03:31:32;18.90;;;10.27;;
25721;SDS011;13578;53.450;15.496;2022-12-07T03:41:12;18.08;;;10.68;;
25721;SDS011;13578;53.450;15.496;2022-12-07T03:44:14;27.85;;;13.48;;
25721;SDS011;13578;53.450;15.496;2022-12-07T03:47:22;26.30;;;11.82;;
25721;SDS011;13578;53.450;15.496;2022-12-07T03:54:24;46.53;;;17.55;;
25721;SDS011;13578;53.450;15.496;2022-12-07T03:57:30;27.30;;;13.68;;
25721;SDS011;13578;53.450;15.496;2022-12-07T04:00:33;24.88;;;13.32;;
25721;SDS011;13578;53.450;15.496;2022-12-07T04:03:33;24.88;;;12.35;;
25721;SDS011;13578;53.450;15.496;2022-12-07T04:06:34;25.90;;;12.80;;
25721;SDS011;13578;53.450;15.496;2022-12-07T04:09:35;24.40;;;12.32;;
25721;SDS011;13578;53.450;15.496;2022-12-07T04:12:35;18.70;;;11.02;;
25721;SDS011;13578;53.450;15.496;2022-12-07T04:15:36;19.48;;;11.43;;
25721;SDS011;13578;53.450;15.496;2022-12-07T04:18:37;22.58;;;12.80;;
25721;SDS011;13578;53.450;15.496;2022-12-07T04:21:37;17.40;;;12.02;;
25721;SDS011;13578;53.450;15.496;2022-12-07T04:24:38;18.95;;;11.32;;
25721;SDS011;13578;53.450;15.496;2022-12-07T04:27:39;21.85;;;11.68;;
25721;SDS011;13578;53.450;15.496;2022-12-07T04:30:40;15.55;;;9.43;;
25721;SDS011;13578;53.450;15.496;2022-12-07T04:33:40;22.80;;;12.20;;
25721;SDS011;13578;53.450;15.496;2022-12-07T04:36:41;16.95;;;10.75;;
25721;SDS011;13578;53.450;15.496;2022-12-07T04:39:43;15.48;;;10.95;;
25721;SDS011;13578;53.450;15.496;2022-12-07T04:42:44;17.38;;;10.70;;
25721;SDS011;13578;53.450;15.496;2022-12-07T04:45:46;17.75;;;11.05;;
25721;SDS011;13578;53.450;15.496;2022-12-07T04:51:55;21.33;;;11.48;;
25721;SDS011;13578;53.450;15.496;2022-12-07T04:54:56;19.25;;;11.27;;
25721;SDS011;13578;53.450;15.496;2022-12-07T04:57:56;17.75;;;10.15;;
25721;SDS011;13578;53.450;15.496;2022-12-07T05:00:57;16.77;;;10.88;;
25721;SDS011;13578;53.450;15.496;2022-12-07T05:03:58;15.57;;;9.65;;
25721;SDS011;13578;53.450;15.496;2022-12-07T05:06:59;15.75;;;10.02;;
25721;SDS011;13578;53.450;15.496;2022-12-07T05:09:59;15.45;;;11.10;;
25721;SDS011;13578;53.450;15.496;2022-12-07T05:13:00;14.82;;;10.98;;
25721;SDS011;13578;53.450;15.496;2022-12-07T05:16:00;12.65;;;8.82;;
25721;SDS011;13578;53.450;15.496;2022-12-07T05:19:01;17.48;;;11.07;;
25721;SDS011;13578;53.450;15.496;2022-12-07T05:22:02;13.77;;;8.45;;
25721;SDS011;13578;53.450;15.496;2022-12-07T05:25:03;19.40;;;10.77;;
25721;SDS011;13578;53.450;15.496;2022-12-07T05:28:04;14.90;;;10.38;;
25721;SDS011;13578;53.450;15.496;2022-12-07T05:31:05;17.50;;;10.82;;
25721;SDS011;13578;53.450;15.496;2022-12-07T05:34:06;14.30;;;9.63;;
25721;SDS011;13578;53.450;15.496;2022-12-07T05:37:06;12.75;;;8.90;;
25721;SDS011;13578;53.450;15.496;2022-12-07T05:40:07;14.85;;;9.20;;
25721;SDS011;13578;53.450;15.496;2022-12-07T05:43:10;14.88;;;9.82;;
25721;SDS011;13578;53.450;15.496;2022-12-07T05:46:10;17.77;;;10.93;;
25721;SDS011;13578;53.450;15.496;2022-12-07T05:49:11;15.40;;;9.77;;
25721;SDS011;13578;53.450;15.496;2022-12-07T05:52:11;17.25;;;11.15;;
25721;SDS011;13578;53.450;15.496;2022-12-07T05:55:12;20.15;;;12.07;;
25721;SDS011;13578;53.450;15.496;2022-12-07T05:58:13;18.67;;;11.98;;
25721;SDS011;13578;53.450;15.496;2022-12-07T06:01:32;23.45;;;11.38;;
25721;SDS011;13578;53.450;15.496;2022-12-07T06:04:34;17.27;;;11.57;;
25721;SDS011;13578;53.450;15.496;2022-12-07T06:07:36;17.40;;;10.57;;
25721;SDS011;13578;53.450;15.496;2022-12-07T06:10:37;16.88;;;10.93;;
25721;SDS011;13578;53.450;15.496;2022-12-07T06:13:38;15.85;;;11.07;;
25721;SDS011;13578;53.450;15.496;2022-12-07T06:16:39;18.33;;;10.98;;
25721;SDS011;13578;53.450;15.496;2022-12-07T06:19:39;18.52;;;11.25;;
25721;SDS011;13578;53.450;15.496;2022-12-07T06:22:40;18.23;;;9.60;;
25721;SDS011;13578;53.450;15.496;2022-12-07T06:25:44;17.17;;;10.88;;
25721;SDS011;13578;53.450;15.496;2022-12-07T06:28:46;18.20;;;10.52;;
25721;SDS011;13578;53.450;15.496;2022-12-07T06:31:46;16.83;;;10.52;;
25721;SDS011;13578;53.450;15.496;2022-12-07T06:34:47;17.00;;;11.70;;
25721;SDS011;13578;53.450;15.496;2022-12-07T06:37:48;16.92;;;10.52;;
25721;SDS011;13578;53.450;15.496;2022-12-07T06:40:48;15.52;;;10.57;;
25721;SDS011;13578;53.450;15.496;2022-12-07T06:43:49;16.75;;;11.10;;
25721;SDS011;13578;53.450;15.496;2022-12-07T06:46:50;17.55;;;10.10;;
25721;SDS011;13578;53.450;15.496;2022-12-07T06:49:51;20.48;;;12.13;;
25721;SDS011;13578;53.450;15.496;2022-12-07T06:52:52;25.05;;;13.32;;
25721;SDS011;13578;53.450;15.496;2022-12-07T06:55:52;35.20;;;15.85;;
25721;SDS011;13578;53.450;15.496;2022-12-07T06:58:53;33.78;;;15.27;;
25721;SDS011;13578;53.450;15.496;2022-12-07T07:01:54;26.40;;;15.20;;
25721;SDS011;13578;53.450;15.496;2022-12-07T07:04:54;27.95;;;15.73;;
25721;SDS011;13578;53.450;15.496;2022-12-07T07:07:55;33.13;;;15.32;;
25721;SDS011;13578;53.450;15.496;2022-12-07T07:10:56;25.83;;;14.50;;
25721;SDS011;13578;53.450;15.496;2022-12-07T07:13:56;24.60;;;13.30;;
25721;SDS011;13578;53.450;15.496;2022-12-07T07:16:59;27.40;;;13.52;;
25721;SDS011;13578;53.450;15.496;2022-12-07T07:19:59;22.70;;;13.40;;
25721;SDS011;13578;53.450;15.496;2022-12-07T07:23:00;24.63;;;13.13;;
25721;SDS011;13578;53.450;15.496;2022-12-07T07:26:01;21.77;;;11.23;;
25721;SDS011;13578;53.450;15.496;2022-12-07T07:29:02;21.25;;;12.30;;
25721;SDS011;13578;53.450;15.496;2022-12-07T07:32:02;22.98;;;12.32;;
25721;SDS011;13578;53.450;15.496;2022-12-07T07:35:03;22.17;;;12.27;;
25721;SDS011;13578;53.450;15.496;2022-12-07T07:38:04;20.10;;;12.25;;
25721;SDS011;13578;53.450;15.496;2022-12-07T07:41:05;20.83;;;11.75;;
25721;SDS011;13578;53.450;15.496;2022-12-07T07:44:06;17.38;;;10.90;;
25721;SDS011;13578;53.450;15.496;2022-12-07T07:47:06;15.35;;;10.25;;
25721;SDS011;13578;53.450;15.496;2022-12-07T07:50:07;16.08;;;10.07;;
25721;SDS011;13578;53.450;15.496;2022-12-07T07:53:08;11.43;;;8.40;;
25721;SDS011;13578;53.450;15.496;2022-12-07T07:56:09;12.52;;;8.38;;
25721;SDS011;13578;53.450;15.496;2022-12-07T07:59:09;13.90;;;9.05;;
25721;SDS011;13578;53.450;15.496;2022-12-07T08:02:21;9.95;;;8.00;;
25721;SDS011;13578;53.450;15.496;2022-12-07T08:05:22;10.23;;;7.80;;
25721;SDS011;13578;53.450;15.496;2022-12-07T08:08:23;13.10;;;9.10;;
25721;SDS011;13578;53.450;15.496;2022-12-07T08:11:23;10.63;;;8.02;;
25721;SDS011;13578;53.450;15.496;2022-12-07T08:14:24;13.95;;;9.77;;
25721;SDS011;13578;53.450;15.496;2022-12-07T08:17:25;15.73;;;9.82;;
25721;SDS011;13578;53.450;15.496;2022-12-07T08:20:26;14.65;;;9.27;;
25721;SDS011;13578;53.450;15.496;2022-12-07T08:23:27;11.05;;;9.32;;
25721;SDS011;13578;53.450;15.496;2022-12-07T08:26:27;12.13;;;8.52;;
25721;SDS011;13578;53.450;15.496;2022-12-07T08:29:28;13.90;;;9.38;;
25721;SDS011;13578;53.450;15.496;2022-12-07T08:32:29;16.15;;;10.80;;
25721;SDS011;13578;53.450;15.496;2022-12-07T08:35:32;19.90;;;11.07;;
25721;SDS011;13578;53.450;15.496;2022-12-07T08:38:34;20.13;;;11.18;;
25721;SDS011;13578;53.450;15.496;2022-12-07T08:41:35;16.33;;;10.68;;
25721;SDS011;13578;53.450;15.496;2022-12-07T08:44:36;20.58;;;11.75;;
25721;SDS011;13578;53.450;15.496;2022-12-07T08:47:37;29.85;;;11.88;;
25721;SDS011;13578;53.450;15.496;2022-12-07T08:50:41;21.17;;;12.25;;
25721;SDS011;13578;53.450;15.496;2022-12-07T08:53:42;24.23;;;11.73;;
25721;SDS011;13578;53.450;15.496;2022-12-07T08:56:44;28.25;;;11.43;;
25721;SDS011;13578;53.450;15.496;2022-12-07T08:59:47;44.10;;;12.30;;
25721;SDS011;13578;53.450;15.496;2022-12-07T09:02:48;29.23;;;12.75;;
25721;SDS011;13578;53.450;15.496;2022-12-07T09:05:48;45.53;;;12.32;;
25721;SDS011;13578;53.450;15.496;2022-12-07T09:08:50;52.72;;;13.27;;
25721;SDS011;13578;53.450;15.496;2022-12-07T09:11:54;34.03;;;13.23;;
25721;SDS011;13578;53.450;15.496;2022-12-07T09:14:55;42.42;;;14.27;;
25721;SDS011;13578;53.450;15.496;2022-12-07T09:17:55;45.88;;;14.35;;
25721;SDS011;13578;53.450;15.496;2022-12-07T09:20:56;34.35;;;12.35;;
25721;SDS011;13578;53.450;15.496;2022-12-07T09:23:57;39.90;;;14.65;;
25721;SDS011;13578;53.450;15.496;2022-12-07T09:26:58;36.67;;;12.98;;
25721;SDS011;13578;53.450;15.496;2022-12-07T09:29:58;27.67;;;13.85;;
25721;SDS011;13578;53.450;15.496;2022-12-07T09:32:59;25.77;;;11.48;;
25721;SDS011;13578;53.450;15.496;2022-12-07T09:36:00;29.25;;;12.23;;
25721;SDS011;13578;53.450;15.496;2022-12-07T09:39:00;22.73;;;13.10;;
25721;SDS011;13578;53.450;15.496;2022-12-07T09:42:02;29.45;;;13.50;;
25721;SDS011;13578;53.450;15.496;2022-12-07T09:45:05;28.25;;;12.43;;
25721;SDS011;13578;53.450;15.496;2022-12-07T09:48:21;22.80;;;11.57;;
25721;SDS011;13578;53.450;15.496;2022-12-07T09:51:25;29.63;;;12.65;;
25721;SDS011;13578;53.450;15.496;2022-12-07T09:54:26;24.20;;;12.07;;
25721;SDS011;13578;53.450;15.496;2022-12-07T09:57:30;27.08;;;11.80;;
25721;SDS011;13578;53.450;15.496;2022-12-07T10:00:34;28.63;;;13.68;;
25721;SDS011;13578;53.450;15.496;2022-12-07T10:03:35;23.80;;;12.35;;
25721;SDS011;13578;53.450;15.496;2022-12-07T10:06:37;29.08;;;12.55;;
25721;SDS011;13578;53.450;15.496;2022-12-07T10:09:37;21.67;;;11.07;;
25721;SDS011;13578;53.450;15.496;2022-12-07T10:12:58;31.75;;;11.88;;
25721;SDS011;13578;53.450;15.496;2022-12-07T10:16:00;28.30;;;11.85;;
25721;SDS011;13578;53.450;15.496;2022-12-07T10:19:17;36.28;;;11.60;;
25721;SDS011;13578;53.450;15.496;2022-12-07T10:22:20;23.00;;;12.05;;
25721;SDS011;13578;53.450;15.496;2022-12-07T10:25:21;24.90;;;12.95;;
25721;SDS011;13578;53.450;15.496;2022-12-07T10:28:33;41.03;;;12.82;;
25721;SDS011;13578;53.450;15.496;2022-12-07T10:31:35;38.47;;;14.68;;
25721;SDS011;13578;53.450;15.496;2022-12-07T10:34:39;41.05;;;13.90;;
25721;SDS011;13578;53.450;15.496;2022-12-07T10:37:40;25.63;;;12.82;;
25721;SDS011;13578;53.450;15.496;2022-12-07T10:40:41;34.42;;;14.10;;
25721;SDS011;13578;53.450;15.496;2022-12-07T10:43:46;43.83;;;17.25;;
25721;SDS011;13578;53.450;15.496;2022-12-07T11:11:04;40.67;;;16.38;;
25721;SDS011;13578;53.450;15.496;2022-12-07T11:17:20;53.15;;;19.48;;
25721;SDS011;13578;53.450;15.496;2022-12-07T11:34:08;65.97;;;20.70;;
25721;SDS011;13578;53.450;15.496;2022-12-07T11:37:21;51.63;;;17.90;;
25721;SDS011;13578;53.450;15.496;2022-12-07T11:40:35;48.53;;;17.05;;
25721;SDS011;13578;53.450;15.496;2022-12-07T11:44:23;72.22;;;19.67;;
25721;SDS011;13578;53.450;15.496;2022-12-07T11:50:20;40.15;;;17.23;;
25721;SDS011;13578;53.450;15.496;2022-12-07T11:53:29;57.53;;;19.45;;
25721;SDS011;13578;53.450;15.496;2022-12-07T11:56:35;41.20;;;16.20;;
25721;SDS011;13578;53.450;15.496;2022-12-07T11:59:38;50.97;;;16.13;;
25721;SDS011;13578;53.450;15.496;2022-12-07T12:05:52;43.50;;;17.10;;
25721;SDS011;13578;53.450;15.496;2022-12-07T12:08:55;48.67;;;16.30;;
25721;SDS011;13578;53.450;15.496;2022-12-07T12:15:15;31.00;;;14.77;;
25721;SDS011;13578;53.450;15.496;2022-12-07T12:21:53;48.53;;;17.67;;
25721;SDS011;13578;53.450;15.496;2022-12-07T12:24:58;49.65;;;16.35;;
25721;SDS011;13578;53.450;15.496;2022-12-07T12:27:59;49.65;;;18.08;;
25721;SDS011;13578;53.450;15.496;2022-12-07T12:31:42;90.13;;;24.05;;
25721;SDS011;13578;53.450;15.496;2022-12-07T12:40:42;95.20;;;22.40;;
25721;SDS011;13578;53.450;15.496;2022-12-07T12:43:44;87.45;;;22.05;;
25721;SDS011;13578;53.450;15.496;2022-12-07T12:46:59;73.85;;;22.48;;
25721;SDS011;13578;53.450;15.496;2022-12-07T12:53:35;53.55;;;21.02;;
25721;SDS011;13578;53.450;15.496;2022-12-07T12:56:41;62.97;;;19.95;;
25721;SDS011;13578;53.450;15.496;2022-12-07T13:06:18;23.70;;;12.18;;
25721;SDS011;13578;53.450;15.496;2022-12-07T13:12:31;21.05;;;11.95;;
25721;SDS011;13578;53.450;15.496;2022-12-07T13:15:39;26.73;;;13.10;;
25721;SDS011;13578;53.450;15.496;2022-12-07T13:18:41;25.00;;;13.80;;
25721;SDS011;13578;53.450;15.496;2022-12-07T13:21:43;24.48;;;14.23;;
25721;SDS011;13578;53.450;15.496;2022-12-07T13:24:43;21.25;;;10.68;;
25721;SDS011;13578;53.450;15.496;2022-12-07T13:27:56;24.20;;;12.77;;
25721;SDS011;13578;53.450;15.496;2022-12-07T13:34:33;23.45;;;12.55;;
25721;SDS011;13578;53.450;15.496;2022-12-07T13:37:38;21.17;;;12.05;;
25721;SDS011;13578;53.450;15.496;2022-12-07T13:40:39;19.48;;;11.40;;
25721;SDS011;13578;53.450;15.496;2022-12-07T13:43:43;21.90;;;11.00;;
25721;SDS011;13578;53.450;15.496;2022-12-07T13:50:29;21.38;;;11.02;;
25721;SDS011;13578;53.450;15.496;2022-12-07T13:53:31;20.40;;;10.88;;
25721;SDS011;13578;53.450;15.496;2022-12-07T13:56:32;17.58;;;11.27;;
25721;SDS011;13578;53.450;15.496;2022-12-07T13:59:35;17.88;;;11.43;;
25721;SDS011;13578;53.450;15.496;2022-12-07T14:02:53;15.93;;;9.80;;
25721;SDS011;13578;53.450;15.496;2022-12-07T14:09:21;16.77;;;9.85;;
25721;SDS011;13578;53.450;15.496;2022-12-07T14:12:24;17.65;;;10.43;;
25721;SDS011;13578;53.450;15.496;2022-12-07T14:15:29;15.48;;;10.50;;
25721;SDS011;13578;53.450;15.496;2022-12-07T14:18:41;19.42;;;10.30;;
25721;SDS011;13578;53.450;15.496;2022-12-07T14:21:41;16.80;;;9.25;;
25721;SDS011;13578;53.450;15.496;2022-12-07T14:24:42;12.32;;;8.10;;
25721;SDS011;13578;53.450;15.496;2022-12-07T14:27:53;18.10;;;10.15;;
25721;SDS011;13578;53.450;15.496;2022-12-07T14:30:56;8.73;;;7.22;;
25721;SDS011;13578;53.450;15.496;2022-12-07T14:34:00;11.38;;;8.55;;
25721;SDS011;13578;53.450;15.496;2022-12-07T14:37:01;13.63;;;8.75;;
25721;SDS011;13578;53.450;15.496;2022-12-07T14:40:02;11.73;;;8.85;;
25721;SDS011;13578;53.450;15.496;2022-12-07T14:43:04;9.65;;;7.30;;
25721;SDS011;13578;53.450;15.496;2022-12-07T14:46:06;12.65;;;7.25;;
25721;SDS011;13578;53.450;15.496;2022-12-07T14:49:07;12.90;;;8.32;;
25721;SDS011;13578;53.450;15.496;2022-12-07T14:52:11;9.73;;;7.13;;
25721;SDS011;13578;53.450;15.496;2022-12-07T14:55:33;7.88;;;6.80;;
25721;SDS011;13578;53.450;15.496;2022-12-07T14:58:34;6.68;;;6.00;;
25721;SDS011;13578;53.450;15.496;2022-12-07T15:01:34;7.13;;;5.95;;
25721;SDS011;13578;53.450;15.496;2022-12-07T15:04:35;7.38;;;6.50;;
25721;SDS011;13578;53.450;15.496;2022-12-07T15:07:35;11.20;;;6.82;;
25721;SDS011;13578;53.450;15.496;2022-12-07T15:10:36;8.95;;;6.47;;
25721;SDS011;13578;53.450;15.496;2022-12-07T15:13:38;7.78;;;6.97;;
25721;SDS011;13578;53.450;15.496;2022-12-07T15:16:57;7.38;;;6.70;;
25721;SDS011;13578;53.450;15.496;2022-12-07T15:19:58;11.73;;;6.53;;
25721;SDS011;13578;53.450;15.496;2022-12-07T15:22:59;8.98;;;6.82;;
25721;SDS011;13578;53.450;15.496;2022-12-07T15:25:59;7.35;;;5.97;;
25721;SDS011;13578;53.450;15.496;2022-12-07T15:29:00;8.43;;;6.57;;
25721;SDS011;13578;53.450;15.496;2022-12-07T15:32:01;8.13;;;6.15;;
25721;SDS011;13578;53.450;15.496;2022-12-07T15:35:02;5.30;;;4.85;;
25721;SDS011;13578;53.450;15.496;2022-12-07T15:38:02;6.60;;;5.97;;
25721;SDS011;13578;53.450;15.496;2022-12-07T15:41:03;13.93;;;7.03;;
25721;SDS011;13578;53.450;15.496;2022-12-07T15:44:04;16.15;;;7.20;;
25721;SDS011;13578;53.450;15.496;2022-12-07T15:47:23;7.45;;;6.03;;
25721;SDS011;13578;53.450;15.496;2022-12-07T15:50:24;9.13;;;6.38;;
25721;SDS011;13578;53.450;15.496;2022-12-07T15:53:25;6.38;;;5.85;;
25721;SDS011;13578;53.450;15.496;2022-12-07T15:56:26;11.27;;;6.28;;
25721;SDS011;13578;53.450;15.496;2022-12-07T15:59:27;8.98;;;6.10;;
25721;SDS011;13578;53.450;15.496;2022-12-07T16:02:28;18.48;;;6.63;;
25721;SDS011;13578;53.450;15.496;2022-12-07T16:05:29;9.30;;;6.78;;
25721;SDS011;13578;53.450;15.496;2022-12-07T16:08:30;15.70;;;6.93;;
25721;SDS011;13578;53.450;15.496;2022-12-07T16:11:30;9.38;;;6.75;;
25721;SDS011;13578;53.450;15.496;2022-12-07T16:14:32;11.13;;;6.15;;
25721;SDS011;13578;53.450;15.496;2022-12-07T16:17:33;11.23;;;6.45;;
25721;SDS011;13578;53.450;15.496;2022-12-07T16:20:34;10.32;;;6.75;;
25721;SDS011;13578;53.450;15.496;2022-12-07T16:23:34;16.70;;;6.78;;
25721;SDS011;13578;53.450;15.496;2022-12-07T16:26:35;8.93;;;6.78;;
25721;SDS011;13578;53.450;15.496;2022-12-07T16:29:36;7.72;;;6.20;;
25721;SDS011;13578;53.450;15.496;2022-12-07T16:32:37;13.32;;;6.28;;
25721;SDS011;13578;53.450;15.496;2022-12-07T16:35:38;12.07;;;6.22;;
25721;SDS011;13578;53.450;15.496;2022-12-07T16:38:41;11.10;;;6.68;;
25721;SDS011;13578;53.450;15.496;2022-12-07T16:41:42;6.00;;;5.45;;
25721;SDS011;13578;53.450;15.496;2022-12-07T16:44:42;18.08;;;6.78;;
25721;SDS011;13578;53.450;15.496;2022-12-07T16:47:43;11.85;;;6.63;;
25721;SDS011;13578;53.450;15.496;2022-12-07T16:50:44;8.65;;;5.95;;
25721;SDS011;13578;53.450;15.496;2022-12-07T16:53:44;13.52;;;7.10;;
25721;SDS011;13578;53.450;15.496;2022-12-07T16:56:45;9.80;;;6.65;;
25721;SDS011;13578;53.450;15.496;2022-12-07T16:59:46;10.32;;;6.13;;
25721;SDS011;13578;53.450;15.496;2022-12-07T17:02:46;8.00;;;6.78;;
25721;SDS011;13578;53.450;15.496;2022-12-07T17:05:47;9.93;;;6.47;;
25721;SDS011;13578;53.450;15.496;2022-12-07T17:08:49;6.68;;;5.90;;
25721;SDS011;13578;53.450;15.496;2022-12-07T17:11:51;15.88;;;6.82;;
25721;SDS011;13578;53.450;15.496;2022-12-07T17:14:52;9.80;;;5.32;;
25721;SDS011;13578;53.450;15.496;2022-12-07T17:18:11;9.23;;;5.95;;
25721;SDS011;13578;53.450;15.496;2022-12-07T17:21:12;13.23;;;6.25;;
25721;SDS011;13578;53.450;15.496;2022-12-07T17:24:13;8.32;;;6.53;;
25721;SDS011;13578;53.450;15.496;2022-12-07T17:27:16;9.10;;;6.43;;
25721;SDS011;13578;53.450;15.496;2022-12-07T17:30:16;6.78;;;5.30;;
25721;SDS011;13578;53.450;15.496;2022-12-07T17:33:17;6.75;;;5.57;;
25721;SDS011;13578;53.450;15.496;2022-12-07T17:36:21;7.78;;;6.18;;
25721;SDS011;13578;53.450;15.496;2022-12-07T17:39:24;13.82;;;6.20;;
25721;SDS011;13578;53.450;15.496;2022-12-07T17:42:25;15.27;;;6.35;;
25721;SDS011;13578;53.450;15.496;2022-12-07T17:45:36;12.00;;;6.53;;
25721;SDS011;13578;53.450;15.496;2022-12-07T17:48:37;6.65;;;5.93;;
25721;SDS011;13578;53.450;15.496;2022-12-07T17:51:37;10.60;;;6.28;;
25721;SDS011;13578;53.450;15.496;2022-12-07T17:54:56;9.02;;;5.60;;
25721;SDS011;13578;53.450;15.496;2022-12-07T17:57:57;10.18;;;6.25;;
25721;SDS011;13578;53.450;15.496;2022-12-07T18:00:58;7.25;;;5.53;;
25721;SDS011;13578;53.450;15.496;2022-12-07T18:03:58;13.27;;;6.10;;
25721;SDS011;13578;53.450;15.496;2022-12-07T18:06:59;16.48;;;6.35;;
25721;SDS011;13578;53.450;15.496;2022-12-07T18:10:00;10.07;;;6.75;;
25721;SDS011;13578;53.450;15.496;2022-12-07T18:13:00;7.85;;;5.03;;
25721;SDS011;13578;53.450;15.496;2022-12-07T18:16:20;8.95;;;5.75;;
25721;SDS011;13578;53.450;15.496;2022-12-07T18:19:23;6.18;;;5.22;;
25721;SDS011;13578;53.450;15.496;2022-12-07T18:22:23;13.35;;;5.57;;
25721;SDS011;13578;53.450;15.496;2022-12-07T18:25:24;7.50;;;5.90;;
25721;SDS011;13578;53.450;15.496;2022-12-07T18:28:25;5.72;;;5.05;;
25721;SDS011;13578;53.450;15.496;2022-12-07T18:31:26;13.85;;;6.55;;
25721;SDS011;13578;53.450;15.496;2022-12-07T18:34:27;5.60;;;5.10;;
25721;SDS011;13578;53.450;15.496;2022-12-07T18:37:29;5.40;;;4.90;;
25721;SDS011;13578;53.450;15.496;2022-12-07T18:40:30;5.75;;;5.18;;
25721;SDS011;13578;53.450;15.496;2022-12-07T18:43:31;10.00;;;5.80;;
25721;SDS011;13578;53.450;15.496;2022-12-07T18:46:32;9.52;;;5.53;;
25721;SDS011;13578;53.450;15.496;2022-12-07T18:49:33;5.25;;;4.85;;
25721;SDS011;13578;53.450;15.496;2022-12-07T18:52:33;11.27;;;6.03;;
25721;SDS011;13578;53.450;15.496;2022-12-07T18:55:34;6.25;;;5.65;;
25721;SDS011;13578;53.450;15.496;2022-12-07T18:58:35;6.05;;;5.38;;
25721;SDS011;13578;53.450;15.496;2022-12-07T19:01:35;5.18;;;4.75;;
25721;SDS011;13578;53.450;15.496;2022-12-07T19:04:36;5.85;;;5.25;;
25721;SDS011;13578;53.450;15.496;2022-12-07T19:07:37;5.93;;;5.03;;
25721;SDS011;13578;53.450;15.496;2022-12-07T19:10:37;10.48;;;4.80;;
25721;SDS011;13578;53.450;15.496;2022-12-07T19:13:38;6.05;;;5.10;;
25721;SDS011;13578;53.450;15.496;2022-12-07T19:16:39;4.97;;;4.55;;
25721;SDS011;13578;53.450;15.496;2022-12-07T19:19:42;5.75;;;4.75;;
25721;SDS011;13578;53.450;15.496;2022-12-07T19:22:44;7.22;;;5.50;;
25721;SDS011;13578;53.450;15.496;2022-12-07T19:25:45;10.63;;;5.95;;
25721;SDS011;13578;53.450;15.496;2022-12-07T19:28:46;5.55;;;4.78;;
25721;SDS011;13578;53.450;15.496;2022-12-07T19:31:46;10.20;;;5.32;;
25721;SDS011;13578;53.450;15.496;2022-12-07T19:34:47;5.43;;;4.95;;
25721;SDS011;13578;53.450;15.496;2022-12-07T19:37:48;13.48;;;4.97;;
25721;SDS011;13578;53.450;15.496;2022-12-07T19:40:49;7.07;;;5.43;;
25721;SDS011;13578;53.450;15.496;2022-12-07T19:43:49;6.40;;;5.80;;